sensor_id;sensor_type;location;lat;lon;timestamp;pressure;altitude;pressure_sealevel;temperature;humidity
43155;BME280;34212;51.018;13.586;2022-08-19T00:01:57;97099.47;;;23.07;62.83
43155;BME280;34212;51.018;13.586;2022-08-19T00:06:59;97107.91;;;23.05;63.00
43155;BME280;34212;51.018;13.586;2022-08-19T00:12:01;97104.66;;;23.03;63.10
43155;BME280;34212;51.018;13.586;2022-08-19T00:17:02;97095.97;;;22.96;63.37
43155;BME280;34212;51.018;13.586;2022-08-19T00:22:04;97101.94;;;22.93;64.09
43155;BME280;34212;51.018;13.586;2022-08-19T00:27:06;97119.31;;;22.92;64.24
43155;BME280;34212;51.018;13.586;2022-08-19T00:32:26;97114.44;;;22.89;64.37
43155;BME280;34212;51.018;13.586;2022-08-19T00:37:30;97126.97;;;22.90;64.46
43155;BME280;34212;51.018;13.586;2022-08-19T00:42:31;97130.75;;;22.89;64.69
43155;BME280;34212;51.018;13.586;2022-08-19T00:47:32;97117.69;;;22.86;64.86
43155;BME280;34212;51.018;13.586;2022-08-19T00:52:36;97117.75;;;22.81;65.08
43155;BME280;34212;51.018;13.586;2022-08-19T00:57:40;97122.38;;;22.80;65.19
43155;BME280;34212;51.018;13.586;2022-08-19T01:02:43;97112.31;;;22.81;65.53
43155;BME280;34212;51.018;13.586;2022-08-19T01:07:44;97121.00;;;22.78;65.55
43155;BME280;34212;51.018;13.586;2022-08-19T01:12:47;97111.19;;;22.77;65.96
43155;BME280;34212;51.018;13.586;2022-08-19T01:17:48;97100.88;;;22.74;66.30
43155;BME280;34212;51.018;13.586;2022-08-19T01:22:54;97131.88;;;22.68;67.08
43155;BME280;34212;51.018;13.586;2022-08-19T01:27:55;97139.22;;;22.67;66.87
43155;BME280;34212;51.018;13.586;2022-08-19T01:33:10;97135.69;;;22.72;66.86
43155;BME280;34212;51.018;13.586;2022-08-19T01:38:22;97137.31;;;22.73;66.79
43155;BME280;34212;51.018;13.586;2022-08-19T01:43:24;97125.34;;;22.74;67.02
43155;BME280;34212;51.018;13.586;2022-08-19T01:48:26;97114.22;;;22.70;67.61
43155;BME280;34212;51.018;13.586;2022-08-19T01:53:30;97118.28;;;22.68;68.38
43155;BME280;34212;51.018;13.586;2022-08-19T01:58:45;97131.59;;;22.64;68.43
43155;BME280;34212;51.018;13.586;2022-08-19T02:03:48;97123.47;;;22.64;68.58
43155;BME280;34212;51.018;13.586;2022-08-19T02:08:50;97131.88;;;22.68;68.49
43155;BME280;34212;51.018;13.586;2022-08-19T02:13:54;97097.38;;;22.68;68.63
43155;BME280;34212;51.018;13.586;2022-08-19T02:18:56;97087.31;;;22.64;69.20
43155;BME280;34212;51.018;13.586;2022-08-19T02:23:57;97102.00;;;22.57;69.69
43155;BME280;34212;51.018;13.586;2022-08-19T02:28:59;97120.50;;;22.55;69.87
43155;BME280;34212;51.018;13.586;2022-08-19T02:34:01;97127.28;;;22.58;69.85
43155;BME280;34212;51.018;13.586;2022-08-19T02:39:04;97127.00;;;22.59;69.88
43155;BME280;34212;51.018;13.586;2022-08-19T02:44:05;97124.81;;;22.62;69.55
43155;BME280;34212;51.018;13.586;2022-08-19T02:49:27;97126.72;;;22.66;69.54
43155;BME280;34212;51.018;13.586;2022-08-19T02:54:29;97133.78;;;22.67;69.41
43155;BME280;34212;51.018;13.586;2022-08-19T02:59:30;97124.25;;;22.65;69.81
43155;BME280;34212;51.018;13.586;2022-08-19T03:04:32;97119.94;;;22.64;69.83
43155;BME280;34212;51.018;13.586;2022-08-19T03:09:33;97121.53;;;22.65;69.99
43155;BME280;34212;51.018;13.586;2022-08-19T03:14:37;97127.53;;;22.67;69.73
43155;BME280;34212;51.018;13.586;2022-08-19T03:19:38;97123.47;;;22.69;69.69
43155;BME280;34212;51.018;13.586;2022-08-19T03:24:40;97130.25;;;22.72;69.42
43155;BME280;34212;51.018;13.586;2022-08-19T03:29:41;97131.88;;;22.73;69.63
43155;BME280;34212;51.018;13.586;2022-08-19T03:34:44;97137.31;;;22.73;69.47
43155;BME280;34212;51.018;13.586;2022-08-19T03:39:45;97132.44;;;22.75;69.24
43155;BME280;34212;51.018;13.586;2022-08-19T03:44:46;97137.88;;;22.75;69.18
43155;BME280;34212;51.018;13.586;2022-08-19T03:49:48;97145.75;;;22.71;69.23
43155;BME280;34212;51.018;13.586;2022-08-19T03:54:49;97145.47;;;22.73;69.09
43155;BME280;34212;51.018;13.586;2022-08-19T03:59:51;97152.25;;;22.75;68.88
43155;BME280;34212;51.018;13.586;2022-08-19T04:04:53;97139.22;;;22.77;68.92
43155;BME280;34212;51.018;13.586;2022-08-19T04:09:54;97137.84;;;22.80;68.78
43155;BME280;34212;51.018;13.586;2022-08-19T04:14:56;97135.66;;;22.82;68.79
43155;BME280;34212;51.018;13.586;2022-08-19T04:19:57;97123.69;;;22.83;68.72
43155;BME280;34212;51.018;13.586;2022-08-19T04:25:00;97125.34;;;22.79;68.85
43155;BME280;34212;51.018;13.586;2022-08-19T04:30:02;97135.13;;;22.80;68.81
43155;BME280;34212;51.018;13.586;2022-08-19T04:35:04;97130.78;;;22.79;68.70
43155;BME280;34212;51.018;13.586;2022-08-19T04:40:19;97127.81;;;22.75;68.67
43155;BME280;34212;51.018;13.586;2022-08-19T04:45:44;97151.44;;;22.75;68.73
43155;BME280;34212;51.018;13.586;2022-08-19T04:50:46;97158.50;;;22.71;68.94
43155;BME280;34212;51.018;13.586;2022-08-19T04:55:47;97159.59;;;22.70;68.93
43155;BME280;34212;51.018;13.586;2022-08-19T05:00:48;97157.97;;;22.69;68.96
43155;BME280;34212;51.018;13.586;2022-08-19T05:05:50;97149.28;;;22.67;68.94
43155;BME280;34212;51.018;13.586;2022-08-19T05:10:51;97155.81;;;22.66;69.01
43155;BME280;34212;51.018;13.586;2022-08-19T05:15:54;97151.19;;;22.66;68.98
43155;BME280;34212;51.018;13.586;2022-08-19T05:20:56;97177.28;;;22.62;69.13
43155;BME280;34212;51.018;13.586;2022-08-19T05:26:16;97182.72;;;22.57;69.33
43155;BME280;34212;51.018;13.586;2022-08-19T05:31:17;97181.91;;;22.56;69.16
43155;BME280;34212;51.018;13.586;2022-08-19T05:36:19;97189.50;;;22.54;69.14
43155;BME280;34212;51.018;13.586;2022-08-19T05:41:21;97206.34;;;22.51;69.26
43155;BME280;34212;51.018;13.586;2022-08-19T05:46:31;97218.31;;;22.50;69.41
43155;BME280;34212;51.018;13.586;2022-08-19T05:51:33;97224.84;;;22.49;69.18
43155;BME280;34212;51.018;13.586;2022-08-19T05:56:35;97229.97;;;22.51;69.23
43155;BME280;34212;51.018;13.586;2022-08-19T06:01:39;97245.75;;;22.54;69.02
43155;BME280;34212;51.018;13.586;2022-08-19T06:06:41;97269.38;;;22.58;68.99
43155;BME280;34212;51.018;13.586;2022-08-19T06:11:43;97267.22;;;22.60;68.94
43155;BME280;34212;51.018;13.586;2022-08-19T06:16:46;97291.69;;;22.66;68.66
43155;BME280;34212;51.018;13.586;2022-08-19T06:21:48;97306.34;;;22.70;68.59
43155;BME280;34212;51.018;13.586;2022-08-19T06:26:50;97308.28;;;22.74;68.45
43155;BME280;34212;51.018;13.586;2022-08-19T06:31:54;97314.00;;;22.78;68.34
43155;BME280;34212;51.018;13.586;2022-08-19T06:36:57;97316.16;;;22.81;68.24
43155;BME280;34212;51.018;13.586;2022-08-19T06:42:02;97322.66;;;22.80;68.22
43155;BME280;34212;51.018;13.586;2022-08-19T06:47:10;97336.53;;;22.78;68.31
43155;BME280;34212;51.018;13.586;2022-08-19T06:52:23;97334.63;;;22.74;68.48
43155;BME280;34212;51.018;13.586;2022-08-19T06:57:25;97354.75;;;22.73;68.61
43155;BME280;34212;51.018;13.586;2022-08-19T07:02:27;97364.25;;;22.70;68.60
43155;BME280;34212;51.018;13.586;2022-08-19T07:07:28;97352.84;;;22.68;68.73
43155;BME280;34212;51.018;13.586;2022-08-19T07:12:31;97339.50;;;22.62;68.93
43155;BME280;34212;51.018;13.586;2022-08-19T07:17:36;97326.72;;;22.57;69.14
43155;BME280;34212;51.018;13.586;2022-08-19T07:22:42;97337.56;;;22.52;69.38
43155;BME280;34212;51.018;13.586;2022-08-19T07:27:43;97350.88;;;22.48;69.60
43155;BME280;34212;51.018;13.586;2022-08-19T07:32:48;97352.50;;;22.44;69.61
43155;BME280;34212;51.018;13.586;2022-08-19T07:37:53;97355.78;;;22.46;69.51
43155;BME280;34212;51.018;13.586;2022-08-19T07:42:55;97359.56;;;22.45;69.74
43155;BME280;34212;51.018;13.586;2022-08-19T07:47:56;97367.72;;;22.45;69.98
43155;BME280;34212;51.018;13.586;2022-08-19T07:52:58;97365.25;;;22.39;70.26
43155;BME280;34212;51.018;13.586;2022-08-19T07:57:59;97363.88;;;22.31;70.75
43155;BME280;34212;51.018;13.586;2022-08-19T08:03:03;97363.84;;;22.26;71.22
43155;BME280;34212;51.018;13.586;2022-08-19T08:08:05;97370.91;;;22.27;71.44
43155;BME280;34212;51.018;13.586;2022-08-19T08:13:28;97374.75;;;22.36;71.65
43155;BME280;34212;51.018;13.586;2022-08-19T08:18:29;97371.25;;;22.46;71.39
43155;BME280;34212;51.018;13.586;2022-08-19T08:23:31;97381.88;;;22.52;71.24
43155;BME280;34212;51.018;13.586;2022-08-19T08:28:32;97390.03;;;22.57;71.19
43155;BME280;34212;51.018;13.586;2022-08-19T08:33:34;97387.31;;;22.57;71.21
43155;BME280;34212;51.018;13.586;2022-08-19T08:38:36;97379.97;;;22.53;71.40
43155;BME280;34212;51.018;13.586;2022-08-19T08:43:44;97392.19;;;22.50;71.42
43155;BME280;34212;51.018;13.586;2022-08-19T08:53:53;97403.63;;;22.52;71.49
43155;BME280;34212;51.018;13.586;2022-08-19T08:59:16;97403.91;;;22.56;71.46
43155;BME280;34212;51.018;13.586;2022-08-19T09:04:21;97400.41;;;22.66;71.46
43155;BME280;34212;51.018;13.586;2022-08-19T09:09:32;97411.84;;;22.78;71.36
43155;BME280;34212;51.018;13.586;2022-08-19T09:14:42;97408.59;;;22.91;71.50
43155;BME280;34212;51.018;13.586;2022-08-19T09:19:53;97411.13;;;23.03;71.46
43155;BME280;34212;51.018;13.586;2022-08-19T09:24:55;97400.53;;;23.12;71.42
43155;BME280;34212;51.018;13.586;2022-08-19T09:29:57;97395.63;;;23.19;71.28
43155;BME280;34212;51.018;13.586;2022-08-19T09:34:58;97385.28;;;23.26;71.23
43155;BME280;34212;51.018;13.586;2022-08-19T09:40:04;97392.88;;;23.24;71.16
43155;BME280;34212;51.018;13.586;2022-08-19T09:45:06;97372.25;;;23.18;71.41
43155;BME280;34212;51.018;13.586;2022-08-19T09:50:11;97384.47;;;23.15;71.75
43155;BME280;34212;51.018;13.586;2022-08-19T09:55:17;97383.13;;;23.18;71.69
43155;BME280;34212;51.018;13.586;2022-08-19T10:00:18;97388.00;;;23.31;71.72
43155;BME280;34212;51.018;13.586;2022-08-19T10:05:20;97397.78;;;23.47;71.82
43155;BME280;34212;51.018;13.586;2022-08-19T10:10:42;97391.00;;;23.50;71.67
43155;BME280;34212;51.018;13.586;2022-08-19T10:15:47;97387.47;;;23.44;71.46
43155;BME280;34212;51.018;13.586;2022-08-19T10:20:51;97392.91;;;23.44;71.47
43155;BME280;34212;51.018;13.586;2022-08-19T10:25:54;97408.16;;;23.40;71.43
43155;BME280;34212;51.018;13.586;2022-08-19T10:31:03;97421.22;;;23.59;71.25
43155;BME280;34212;51.018;13.586;2022-08-19T10:36:07;97421.22;;;23.69;70.93
43155;BME280;34212;51.018;13.586;2022-08-19T10:41:09;97407.34;;;23.81;70.80
43155;BME280;34212;51.018;13.586;2022-08-19T10:46:14;97404.28;;;24.03;70.90
43155;BME280;34212;51.018;13.586;2022-08-19T10:51:17;97414.03;;;24.19;70.54
43155;BME280;34212;51.018;13.586;2022-08-19T10:56:46;97425.75;;;24.25;70.07
43155;BME280;34212;51.018;13.586;2022-08-19T11:01:54;97436.91;;;24.33;69.48
43155;BME280;34212;51.018;13.586;2022-08-19T11:06:59;97437.66;;;24.54;68.98
43155;BME280;34212;51.018;13.586;2022-08-19T11:12:00;97434.41;;;24.52;68.43
43155;BME280;34212;51.018;13.586;2022-08-19T11:17:05;97443.34;;;24.58;68.61
43155;BME280;34212;51.018;13.586;2022-08-19T11:22:07;97438.44;;;24.65;68.00
43155;BME280;34212;51.018;13.586;2022-08-19T11:27:10;97454.25;;;24.58;67.82
43155;BME280;34212;51.018;13.586;2022-08-19T11:32:12;97461.66;;;24.52;67.83
43155;BME280;34212;51.018;13.586;2022-08-19T11:37:14;97452.13;;;24.39;67.75
43155;BME280;34212;51.018;13.586;2022-08-19T11:42:17;97458.94;;;24.47;67.54
43155;BME280;34212;51.018;13.586;2022-08-19T11:47:37;97449.69;;;24.43;67.18
43155;BME280;34212;51.018;13.586;2022-08-19T11:52:39;97447.50;;;24.30;67.24
43155;BME280;34212;51.018;13.586;2022-08-19T11:57:41;97451.09;;;24.20;67.36
43155;BME280;34212;51.018;13.586;2022-08-19T12:02:42;97463.09;;;24.09;67.39
43155;BME280;34212;51.018;13.586;2022-08-19T12:07:44;97459.56;;;24.03;67.41
43155;BME280;34212;51.018;13.586;2022-08-19T12:12:45;97483.25;;;24.08;67.52
43155;BME280;34212;51.018;13.586;2022-08-19T12:17:55;97473.44;;;24.07;67.20
43155;BME280;34212;51.018;13.586;2022-08-19T12:22:57;97482.69;;;24.11;66.93
43155;BME280;34212;51.018;13.586;2022-08-19T12:27:59;97478.88;;;24.17;66.97
43155;BME280;34212;51.018;13.586;2022-08-19T12:33:01;97474.50;;;24.26;66.74
43155;BME280;34212;51.018;13.586;2022-08-19T12:38:02;97490.03;;;24.26;66.43
43155;BME280;34212;51.018;13.586;2022-08-19T12:43:04;97485.41;;;24.16;66.42
43155;BME280;34212;51.018;13.586;2022-08-19T12:48:08;97502.31;;;24.08;66.57
43155;BME280;34212;51.018;13.586;2022-08-19T12:53:29;97505.88;;;23.98;66.72
43155;BME280;34212;51.018;13.586;2022-08-19T12:58:31;97498.53;;;23.88;66.73
43155;BME280;34212;51.018;13.586;2022-08-19T13:03:33;97496.06;;;23.77;66.86
43155;BME280;34212;51.018;13.586;2022-08-19T13:08:40;97495.00;;;23.72;66.95
43155;BME280;34212;51.018;13.586;2022-08-19T13:13:46;97487.34;;;23.80;67.09
43155;BME280;34212;51.018;13.586;2022-08-19T13:18:47;97493.09;;;23.83;67.03
43155;BME280;34212;51.018;13.586;2022-08-19T13:23:49;97491.47;;;23.72;67.05
43155;BME280;34212;51.018;13.586;2022-08-19T13:28:51;97491.41;;;23.51;67.38
43155;BME280;34212;51.018;13.586;2022-08-19T13:34:11;97483.22;;;23.36;67.86
43155;BME280;34212;51.018;13.586;2022-08-19T13:39:13;97488.09;;;23.24;68.07
43155;BME280;34212;51.018;13.586;2022-08-19T13:44:15;97488.09;;;23.14;68.30
43155;BME280;34212;51.018;13.586;2022-08-19T13:49:16;97476.13;;;23.15;68.31
43155;BME280;34212;51.018;13.586;2022-08-19T13:54:18;97481.06;;;23.28;68.17
43155;BME280;34212;51.018;13.586;2022-08-19T13:59:20;97475.63;;;23.38;68.25
43155;BME280;34212;51.018;13.586;2022-08-19T14:04:21;97488.69;;;23.46;68.03
43155;BME280;34212;51.018;13.586;2022-08-19T14:09:22;97502.28;;;23.51;67.83
43155;BME280;34212;51.018;13.586;2022-08-19T14:14:24;97499.03;;;23.49;67.56
43155;BME280;34212;51.018;13.586;2022-08-19T14:19:25;97499.03;;;23.49;67.58
43155;BME280;34212;51.018;13.586;2022-08-19T14:24:30;97494.41;;;23.50;67.48
43155;BME280;34212;51.018;13.586;2022-08-19T14:29:32;97502.56;;;23.45;67.64
43155;BME280;34212;51.018;13.586;2022-08-19T14:34:33;97503.38;;;23.35;67.44
43155;BME280;34212;51.018;13.586;2022-08-19T14:39:38;97503.09;;;23.32;67.41
43155;BME280;34212;51.018;13.586;2022-08-19T14:44:41;97496.31;;;23.34;67.47
43155;BME280;34212;51.018;13.586;2022-08-19T14:49:43;97485.69;;;23.43;67.47
43155;BME280;34212;51.018;13.586;2022-08-19T14:54:48;97493.31;;;23.51;67.40
43155;BME280;34212;51.018;13.586;2022-08-19T14:59:51;97499.03;;;23.55;67.07
43155;BME280;34212;51.018;13.586;2022-08-19T15:04:53;97495.78;;;23.68;67.04
43155;BME280;34212;51.018;13.586;2022-08-19T15:09:59;97480.84;;;23.76;66.71
43155;BME280;34212;51.018;13.586;2022-08-19T15:15:00;97481.09;;;23.84;66.46
43155;BME280;34212;51.018;13.586;2022-08-19T15:20:02;97493.38;;;23.87;66.50
43155;BME280;34212;51.018;13.586;2022-08-19T15:25:05;97503.72;;;23.85;66.52
43155;BME280;34212;51.018;13.586;2022-08-19T15:30:07;97499.91;;;23.81;66.61
43155;BME280;34212;51.018;13.586;2022-08-19T15:35:09;97510.22;;;23.73;66.51
43155;BME280;34212;51.018;13.586;2022-08-19T15:40:10;97494.94;;;23.67;66.26
43155;BME280;34212;51.018;13.586;2022-08-19T15:45:12;97482.97;;;23.63;66.46
43155;BME280;34212;51.018;13.586;2022-08-19T15:50:15;97481.91;;;23.59;66.56
43155;BME280;34212;51.018;13.586;2022-08-19T15:55:23;97460.66;;;23.56;66.27
43155;BME280;34212;51.018;13.586;2022-08-19T16:00:34;97463.38;;;23.61;66.13
43155;BME280;34212;51.018;13.586;2022-08-19T16:05:54;97458.50;;;23.68;66.28
43155;BME280;34212;51.018;13.586;2022-08-19T16:11:18;97470.44;;;23.67;66.04
43155;BME280;34212;51.018;13.586;2022-08-19T16:16:23;97484.34;;;23.66;65.84
43155;BME280;34212;51.018;13.586;2022-08-19T16:21:31;97484.59;;;23.64;65.99
43155;BME280;34212;51.018;13.586;2022-08-19T16:26:33;97493.06;;;23.63;65.92
43155;BME280;34212;51.018;13.586;2022-08-19T16:31:35;97489.78;;;23.61;65.77
43155;BME280;34212;51.018;13.586;2022-08-19T16:36:36;97481.91;;;23.59;65.71
43155;BME280;34212;51.018;13.586;2022-08-19T16:41:42;97471.28;;;23.52;65.79
43155;BME280;34212;51.018;13.586;2022-08-19T16:46:44;97455.78;;;23.43;66.05
43155;BME280;34212;51.018;13.586;2022-08-19T16:51:58;97443.25;;;23.37;65.94
43155;BME280;34212;51.018;13.586;2022-08-19T16:57:00;97451.41;;;23.32;66.34
43155;BME280;34212;51.018;13.586;2022-08-19T17:02:01;97451.13;;;23.28;66.12
43155;BME280;34212;51.018;13.586;2022-08-19T17:07:03;97440.78;;;23.30;66.09
43155;BME280;34212;51.018;13.586;2022-08-19T17:12:05;97444.06;;;23.32;66.19
43155;BME280;34212;51.018;13.586;2022-08-19T17:17:07;97452.75;;;23.29;66.41
43155;BME280;34212;51.018;13.586;2022-08-19T17:22:09;97468.50;;;23.27;66.07
43155;BME280;34212;51.018;13.586;2022-08-19T17:27:11;97463.09;;;23.22;66.22
43155;BME280;34212;51.018;13.586;2022-08-19T17:32:13;97473.41;;;23.20;66.29
43155;BME280;34212;51.018;13.586;2022-08-19T17:37:15;97470.97;;;23.18;66.34
43155;BME280;34212;51.018;13.586;2022-08-19T17:42:17;97470.69;;;23.15;66.25
43155;BME280;34212;51.018;13.586;2022-08-19T17:47:19;97469.59;;;23.11;66.43
43155;BME280;34212;51.018;13.586;2022-08-19T17:52:21;97482.34;;;23.05;66.47
43155;BME280;34212;51.018;13.586;2022-08-19T17:57:22;97507.91;;;23.04;66.50
43155;BME280;34212;51.018;13.586;2022-08-19T18:02:24;97504.63;;;23.02;66.51
43155;BME280;34212;51.018;13.586;2022-08-19T18:07:26;97516.03;;;22.99;66.77
43155;BME280;34212;51.018;13.586;2022-08-19T18:12:27;97535.06;;;22.99;66.68
43155;BME280;34212;51.018;13.586;2022-08-19T18:17:28;97548.69;;;22.99;66.65
43155;BME280;34212;51.018;13.586;2022-08-19T18:22:31;97564.19;;;22.98;66.73
43155;BME280;34212;51.018;13.586;2022-08-19T18:27:35;97585.13;;;22.98;66.64
43155;BME280;34212;51.018;13.586;2022-08-19T18:32:37;97582.69;;;22.96;66.39
43155;BME280;34212;51.018;13.586;2022-08-19T18:37:39;97589.47;;;22.94;66.73
43155;BME280;34212;51.018;13.586;2022-08-19T18:42:42;97570.94;;;22.91;66.63
43155;BME280;34212;51.018;13.586;2022-08-19T18:48:02;97568.72;;;22.88;66.73
43155;BME280;34212;51.018;13.586;2022-08-19T18:53:29;97556.72;;;22.78;66.76
43155;BME280;34212;51.018;13.586;2022-08-19T18:58:32;97565.13;;;22.72;66.79
43155;BME280;34212;51.018;13.586;2022-08-19T19:03:37;97561.84;;;22.70;66.82
43155;BME280;34212;51.018;13.586;2022-08-19T19:08:41;97562.13;;;22.68;66.84
43155;BME280;34212;51.018;13.586;2022-08-19T19:13:43;97577.88;;;22.66;66.72
43155;BME280;34212;51.018;13.586;2022-08-19T19:18:47;97560.19;;;22.64;66.60
43155;BME280;34212;51.018;13.586;2022-08-19T19:23:53;97540.88;;;22.60;66.69
43155;BME280;34212;51.018;13.586;2022-08-19T19:28:54;97558.78;;;22.56;66.64
43155;BME280;34212;51.018;13.586;2022-08-19T19:33:58;97567.47;;;22.53;66.74
43155;BME280;34212;51.018;13.586;2022-08-19T19:38:59;97559.56;;;22.51;66.65
43155;BME280;34212;51.018;13.586;2022-08-19T19:44:01;97559.56;;;22.51;66.56
43155;BME280;34212;51.018;13.586;2022-08-19T19:49:23;97570.44;;;22.51;66.65
43155;BME280;34212;51.018;13.586;2022-08-19T19:54:25;97557.94;;;22.50;66.56
43155;BME280;34212;51.018;13.586;2022-08-19T19:59:26;97547.59;;;22.47;66.54
43155;BME280;34212;51.018;13.586;2022-08-19T20:04:28;97548.13;;;22.44;66.72
43155;BME280;34212;51.018;13.586;2022-08-19T20:09:29;97548.66;;;22.41;66.65
43155;BME280;34212;51.018;13.586;2022-08-19T20:14:51;97548.06;;;22.39;66.68
43155;BME280;34212;51.018;13.586;2022-08-19T20:19:52;97570.91;;;22.38;66.65
43155;BME280;34212;51.018;13.586;2022-08-19T20:24:53;97573.63;;;22.38;66.67
43155;BME280;34212;51.018;13.586;2022-08-19T20:29:55;97580.44;;;22.41;66.66
43155;BME280;34212;51.018;13.586;2022-08-19T20:34:57;97586.13;;;22.39;66.59
43155;BME280;34212;51.018;13.586;2022-08-19T20:39:59;97594.00;;;22.41;66.47
43155;BME280;34212;51.018;13.586;2022-08-19T20:45:01;97596.22;;;22.44;66.47
43155;BME280;34212;51.018;13.586;2022-08-19T20:50:03;97572.06;;;22.47;66.45
43155;BME280;34212;51.018;13.586;2022-08-19T20:55:05;97582.91;;;22.47;66.40
43155;BME280;34212;51.018;13.586;2022-08-19T21:00:07;97582.09;;;22.47;66.39
43155;BME280;34212;51.018;13.586;2022-08-19T21:05:12;97584.00;;;22.46;66.38
43155;BME280;34212;51.018;13.586;2022-08-19T21:10:15;97575.28;;;22.44;66.37
43155;BME280;34212;51.018;13.586;2022-08-19T21:15:16;97582.34;;;22.40;66.39
43155;BME280;34212;51.018;13.586;2022-08-19T21:20:18;97579.06;;;22.38;66.39
43155;BME280;34212;51.018;13.586;2022-08-19T21:25:19;97577.09;;;22.33;66.51
43155;BME280;34212;51.018;13.586;2022-08-19T21:30:21;97572.19;;;22.30;66.53
43155;BME280;34212;51.018;13.586;2022-08-19T21:35:24;97594.19;;;22.29;66.66
43155;BME280;34212;51.018;13.586;2022-08-19T21:40:25;97586.56;;;22.26;66.80
43155;BME280;34212;51.018;13.586;2022-08-19T21:45:27;97587.66;;;22.25;66.69
43155;BME280;34212;51.018;13.586;2022-08-19T21:50:29;97573.50;;;22.23;66.62
43155;BME280;34212;51.018;13.586;2022-08-19T21:55:32;97580.53;;;22.19;66.70
43155;BME280;34212;51.018;13.586;2022-08-19T22:00:34;97563.69;;;22.17;66.66
43155;BME280;34212;51.018;13.586;2022-08-19T22:05:36;97554.66;;;22.11;66.71
43155;BME280;34212;51.018;13.586;2022-08-19T22:10:37;97573.94;;;22.09;66.79
43155;BME280;34212;51.018;13.586;2022-08-19T22:15:39;97563.31;;;22.08;66.82
43155;BME280;34212;51.018;13.586;2022-08-19T22:20:41;97571.47;;;22.08;66.70
43155;BME280;34212;51.018;13.586;2022-08-19T22:25:43;97582.59;;;22.06;66.77
43155;BME280;34212;51.018;13.586;2022-08-19T22:30:45;97571.97;;;22.05;66.92
43155;BME280;34212;51.018;13.586;2022-08-19T22:35:51;97572.78;;;22.05;66.74
43155;BME280;34212;51.018;13.586;2022-08-19T22:40:53;97572.25;;;22.03;66.85
43155;BME280;34212;51.018;13.586;2022-08-19T22:45:57;97577.09;;;22.01;67.08
43155;BME280;34212;51.018;13.586;2022-08-19T22:50:59;97569.53;;;22.03;66.92
43155;BME280;34212;51.018;13.586;2022-08-19T22:56:19;97602.13;;;22.08;66.94
43155;BME280;34212;51.018;13.586;2022-08-19T23:01:20;97592.41;;;22.12;66.85
43155;BME280;34212;51.018;13.586;2022-08-19T23:06:30;97587.81;;;22.13;66.77
43155;BME280;34212;51.018;13.586;2022-08-19T23:11:36;97574.22;;;22.13;66.84
43155;BME280;34212;51.018;13.586;2022-08-19T23:16:42;97578.03;;;22.12;66.91
43155;BME280;34212;51.018;13.586;2022-08-19T23:21:51;97571.22;;;22.09;66.80
43155;BME280;34212;51.018;13.586;2022-08-19T23:26:52;97576.06;;;22.07;66.96
43155;BME280;34212;51.018;13.586;2022-08-19T23:32:13;97572.78;;;22.05;66.93
43155;BME280;34212;51.018;13.586;2022-08-19T23:37:16;97566.53;;;22.05;67.00
43155;BME280;34212;51.018;13.586;2022-08-19T23:42:18;97562.44;;;22.02;67.18
43155;BME280;34212;51.018;13.586;2022-08-19T23:47:20;97555.09;;;21.98;67.21
43155;BME280;34212;51.018;13.586;2022-08-19T23:52:22;97558.56;;;21.93;67.29
43155;BME280;34212;51.018;13.586;2022-08-19T23:57:24;97562.88;;;21.89;67.35
